Time;durP1;ratioP1;P1;durP2;ratioP2;P2;SDS_P1;SDS_P2;PMS_P1;PMS_P2;Temp;Humidity;BMP_temperature;BMP_pressure;BME280_temperature;BME280_humidity;BME280_pressure;Samples;Min_cycle;Max_cycle;Signal;HPM_P1;HPM_P2
2024/02/05 00:01:20;;;;;;;2.07;1.87;;;3.80;99.90;;;;;;5052635;28;20205;-67
2024/02/05 00:03:46;;;;;;;1.93;1.83;;;3.80;99.90;;;;;;5051070;28;20443;-67
2024/02/05 00:06:15;;;;;;;5.07;1.60;;;3.80;99.90;;;;;;5050758;28;20186;-68
2024/02/05 00:08:41;;;;;;;5.32;1.70;;;3.80;99.90;;;;;;5052334;28;20182;-68
2024/02/05 00:11:07;;;;;;;2.00;1.20;;;3.80;99.90;;;;;;5052549;28;20174;-68
2024/02/05 00:13:33;;;;;;;3.13;1.60;;;3.80;99.90;;;;;;5050803;28;20456;-67
2024/02/05 00:16:00;;;;;;;3.45;1.27;;;3.70;99.90;;;;;;5051923;28;20499;-67
2024/02/05 00:18:25;;;;;;;4.90;2.22;;;3.80;99.90;;;;;;5052164;28;20170;-67
2024/02/05 00:20:52;;;;;;;1.83;1.73;;;3.80;99.90;;;;;;5051988;28;20177;-67
2024/02/05 00:23:18;;;;;;;3.30;1.60;;;3.80;99.90;;;;;;5051943;28;20188;-68
2024/02/05 00:25:43;;;;;;;2.07;1.80;;;3.80;99.90;;;;;;5051939;28;20560;-68
2024/02/05 00:28:10;;;;;;;3.80;2.07;;;3.60;99.90;;;;;;5051818;28;20178;-68
2024/02/05 00:30:36;;;;;;;4.45;2.60;;;3.70;99.90;;;;;;5051966;28;20171;-67
2024/02/05 00:33:02;;;;;;;5.70;2.40;;;3.80;99.90;;;;;;5050579;28;20289;-68
2024/02/05 00:35:28;;;;;;;1.73;1.58;;;3.90;99.90;;;;;;5050439;28;20198;-68
2024/02/05 00:37:53;;;;;;;2.63;2.23;;;4.00;99.90;;;;;;5051558;28;20185;-67
2024/02/05 00:40:20;;;;;;;2.37;2.17;;;4.00;99.90;;;;;;5051697;28;20174;-67
2024/02/05 00:42:45;;;;;;;2.58;1.90;;;3.90;99.90;;;;;;5052493;28;20169;-68
2024/02/05 00:45:11;;;;;;;4.47;2.40;;;3.90;99.90;;;;;;5051661;28;20206;-67
2024/02/05 00:47:37;;;;;;;7.33;3.20;;;3.90;99.90;;;;;;5051498;28;20178;-68
2024/02/05 00:50:04;;;;;;;3.50;2.40;;;4.00;99.90;;;;;;5051509;28;20420;-67
2024/02/05 00:52:30;;;;;;;3.30;2.13;;;3.90;99.90;;;;;;5051563;28;20567;-67
2024/02/05 00:54:56;;;;;;;4.97;2.00;;;4.00;99.90;;;;;;5051460;28;20198;-68
2024/02/05 00:57:22;;;;;;;4.73;2.43;;;4.10;99.90;;;;;;5051283;28;20507;-68
2024/02/05 00:59:47;;;;;;;4.47;2.70;;;4.10;99.90;;;;;;5051607;28;20724;-67
2024/02/05 01:02:13;;;;;;;2.30;2.07;;;4.10;99.90;;;;;;5051519;28;20555;-68
2024/02/05 01:04:39;;;;;;;3.03;1.97;;;4.20;99.90;;;;;;5051104;28;20242;-67
2024/02/05 01:07:05;;;;;;;2.15;2.05;;;4.30;99.90;;;;;;5050429;28;20224;-68
2024/02/05 01:09:30;;;;;;;2.50;2.07;;;4.20;99.90;;;;;;5051269;28;20674;-68
2024/02/05 01:11:56;;;;;;;3.03;1.67;;;4.00;99.90;;;;;;5051299;28;20416;-67
2024/02/05 01:14:22;;;;;;;6.67;2.27;;;4.00;99.90;;;;;;5051357;28;20200;-67
2024/02/05 01:16:48;;;;;;;3.23;2.00;;;3.80;99.90;;;;;;5051087;28;20178;-68
2024/02/05 01:19:14;;;;;;;3.33;1.50;;;3.80;99.90;;;;;;5051165;28;20496;-67
2024/02/05 01:21:39;;;;;;;7.13;2.07;;;3.80;99.90;;;;;;5051205;28;20194;-68
2024/02/05 01:24:06;;;;;;;5.13;3.00;;;3.80;99.90;;;;;;5050919;28;20727;-68
2024/02/05 01:26:32;;;;;;;7.20;2.07;;;3.80;99.90;;;;;;5050934;28;20181;-68
2024/02/05 01:28:57;;;;;;;1.67;1.57;;;3.80;99.90;;;;;;5051261;28;20178;-68
2024/02/05 01:31:23;;;;;;;2.20;2.00;;;3.80;99.90;;;;;;5051097;28;20174;-68
2024/02/05 01:33:48;;;;;;;3.70;1.70;;;3.80;99.90;;;;;;5050942;28;20198;-68
2024/02/05 01:36:15;;;;;;;8.67;2.00;;;3.80;99.90;;;;;;5050836;28;20170;-68
2024/02/05 01:38:40;;;;;;;1.77;1.45;;;3.90;99.90;;;;;;5049851;28;20185;-68
2024/02/05 01:41:07;;;;;;;1.60;1.50;;;3.90;99.90;;;;;;5051201;28;20170;-68
2024/02/05 01:43:32;;;;;;;3.95;1.45;;;3.80;99.90;;;;;;5051090;28;20475;-67
2024/02/05 01:45:58;;;;;;;3.43;2.00;;;3.90;99.90;;;;;;5050769;28;20178;-68
2024/02/05 01:48:29;;;;;;;1.85;1.38;;;3.90;99.90;;;;;;5050963;28;20565;-68
2024/02/05 01:50:56;;;;;;;2.90;2.15;;;4.00;99.90;;;;;;5049721;28;20182;-67
2024/02/05 01:53:23;;;;;;;7.45;1.75;;;4.00;99.90;;;;;;5050833;28;20347;-68
2024/02/05 01:55:51;;;;;;;3.13;2.50;;;4.00;99.90;;;;;;5050960;28;20174;-67
2024/02/05 01:58:18;;;;;;;6.63;3.03;;;4.00;99.90;;;;;;5050819;28;20544;-67
2024/02/05 02:00:44;;;;;;;3.10;2.47;;;3.90;99.90;;;;;;5050911;28;20201;-67
2024/02/05 02:03:12;;;;;;;4.97;1.37;;;3.80;99.90;;;;;;5050755;28;20170;-67
2024/02/05 02:05:38;;;;;;;3.05;1.88;;;3.80;99.90;;;;;;5050869;28;20174;-68
2024/02/05 02:08:10;;;;;;;10.80;2.25;;;3.80;99.90;;;;;;5050613;28;20189;-68
2024/02/05 02:10:36;;;;;;;2.80;1.90;;;3.80;99.90;;;;;;5050934;28;20166;-68
2024/02/05 02:13:03;;;;;;;4.95;2.33;;;3.80;99.90;;;;;;5050982;28;20680;-68
2024/02/05 02:15:29;;;;;;;3.65;2.30;;;3.80;99.90;;;;;;5051260;28;20480;-67
2024/02/05 02:17:58;;;;;;;2.90;2.60;;;3.80;99.90;;;;;;5052937;28;20220;-67
2024/02/05 02:20:28;;;;;;;5.68;3.40;;;3.70;99.90;;;;;;5054416;28;20408;-68
2024/02/05 02:22:57;;;;;;;4.25;2.38;;;3.50;99.90;;;;;;5054399;28;20544;-67
2024/02/05 02:25:23;;;;;;;4.20;2.38;;;3.50;99.90;;;;;;5054102;28;20213;-67
2024/02/05 02:27:49;;;;;;;4.50;2.60;;;3.60;99.90;;;;;;5053993;28;20249;-67
2024/02/05 02:30:18;;;;;;;6.57;2.38;;;3.60;99.90;;;;;;5054218;28;20378;-67
2024/02/05 02:32:49;;;;;;;2.50;2.30;;;3.50;99.90;;;;;;5054120;28;20202;-67
2024/02/05 02:35:43;;;;;;;10.73;2.65;;;3.50;99.90;;;;;;5054034;28;20191;-68
2024/02/05 02:38:16;;;;;;;4.35;2.38;;;3.50;99.90;;;;;;5053822;28;20178;-68
2024/02/05 02:40:44;;;;;;;2.83;2.03;;;3.50;99.90;;;;;;5054084;28;20533;-68
2024/02/05 02:43:11;;;;;;;4.53;2.83;;;3.50;99.90;;;;;;5054004;28;20170;-68
2024/02/05 02:45:37;;;;;;;5.78;2.28;;;3.40;99.90;;;;;;5053929;28;20178;-68
2024/02/05 02:48:03;;;;;;;4.70;2.37;;;3.40;99.90;;;;;;5053915;28;20174;-67
2024/02/05 02:50:28;;;;;;;5.60;2.10;;;3.60;99.90;;;;;;5053765;28;20171;-67
2024/02/05 02:52:54;;;;;;;3.57;3.27;;;3.70;99.90;;;;;;5053533;28;20448;-68
2024/02/05 02:55:19;;;;;;;2.00;1.60;;;3.80;99.90;;;;;;5053650;28;20229;-67
2024/02/05 02:57:45;;;;;;;3.47;2.13;;;3.80;99.90;;;;;;5052148;28;20313;-68
2024/02/05 03:00:12;;;;;;;4.03;2.27;;;3.80;99.90;;;;;;5053680;28;20647;-67
2024/02/05 03:02:39;;;;;;;2.70;2.47;;;3.70;99.90;;;;;;5053654;28;20648;-67
2024/02/05 03:05:06;;;;;;;5.13;2.17;;;3.70;99.90;;;;;;5053488;28;20190;-68
2024/02/05 03:07:34;;;;;;;5.20;1.98;;;3.70;99.90;;;;;;5053092;28;20170;-68
2024/02/05 03:10:01;;;;;;;2.65;1.88;;;3.70;99.90;;;;;;5053483;28;20521;-68
2024/02/05 03:12:27;;;;;;;2.88;2.20;;;3.60;99.90;;;;;;5053417;28;20319;-68
2024/02/05 03:14:52;;;;;;;3.60;2.07;;;3.60;99.90;;;;;;5053457;28;20202;-67
2024/02/05 03:17:18;;;;;;;3.80;1.97;;;3.60;99.90;;;;;;5053095;28;20570;-68
2024/02/05 03:19:43;;;;;;;3.23;2.13;;;3.70;99.90;;;;;;5053272;28;20170;-68
2024/02/05 03:22:10;;;;;;;9.33;2.30;;;3.60;99.90;;;;;;5053060;28;20258;-68
2024/02/05 03:24:36;;;;;;;9.27;2.35;;;3.60;99.90;;;;;;5053010;28;20214;-68
2024/02/05 03:27:02;;;;;;;1.63;1.30;;;3.60;99.90;;;;;;5052804;28;20269;-68
2024/02/05 03:29:27;;;;;;;3.93;1.53;;;3.70;99.90;;;;;;5052216;28;20178;-67
2024/02/05 03:31:53;;;;;;;3.17;1.80;;;3.70;99.90;;;;;;5052982;28;20166;-68
2024/02/05 03:34:19;;;;;;;3.63;2.60;;;3.60;99.90;;;;;;5052802;28;20190;-68
2024/02/05 03:36:44;;;;;;;2.97;2.05;;;3.70;99.90;;;;;;5051197;28;20261;-68
2024/02/05 03:39:10;;;;;;;2.57;1.20;;;3.60;99.90;;;;;;5052855;28;20309;-68
2024/02/05 03:41:36;;;;;;;2.20;1.10;;;3.60;99.90;;;;;;5052801;28;20632;-68
2024/02/05 03:44:02;;;;;;;4.13;1.90;;;3.70;99.90;;;;;;5052815;28;20194;-68
2024/02/05 03:46:27;;;;;;;1.40;1.20;;;3.80;99.90;;;;;;5052954;28;20252;-68
2024/02/05 03:48:55;;;;;;;2.20;1.97;;;3.80;99.90;;;;;;5053404;28;20206;-67
2024/02/05 03:51:21;;;;;;;3.08;1.60;;;3.80;99.90;;;;;;5052516;28;20182;-67
2024/02/05 03:53:48;;;;;;;4.10;1.80;;;3.80;99.90;;;;;;5051378;28;20206;-68
2024/02/05 03:56:16;;;;;;;5.40;1.98;;;3.80;99.90;;;;;;5052341;28;20268;-68
2024/02/05 03:58:42;;;;;;;2.30;1.92;;;3.80;99.90;;;;;;5052550;28;20472;-68
2024/02/05 04:01:07;;;;;;;1.50;1.40;;;3.70;99.90;;;;;;5051161;28;20170;-67
2024/02/05 04:03:33;;;;;;;3.27;1.70;;;3.70;99.90;;;;;;5052313;28;20569;-67
2024/02/05 04:05:59;;;;;;;3.73;2.40;;;3.70;99.90;;;;;;5052065;28;20714;-67
2024/02/05 04:08:24;;;;;;;9.00;1.67;;;3.60;99.90;;;;;;5052257;28;20173;-67
2024/02/05 04:10:54;;;;;;;3.40;1.70;;;3.60;99.90;;;;;;5050971;28;20178;-67
2024/02/05 04:13:20;;;;;;;5.00;2.47;;;3.60;99.90;;;;;;5052206;28;20194;-67
2024/02/05 04:15:45;;;;;;;2.53;1.87;;;3.70;99.90;;;;;;5052575;28;20182;-67
2024/02/05 04:18:11;;;;;;;2.30;2.10;;;3.70;99.90;;;;;;5052171;28;20189;-68
2024/02/05 04:20:36;;;;;;;2.57;1.50;;;3.60;99.90;;;;;;5052055;28;20651;-68
2024/02/05 04:23:02;;;;;;;3.30;2.20;;;3.60;99.90;;;;;;5052113;28;20609;-68
2024/02/05 04:25:28;;;;;;;2.50;1.97;;;3.70;99.90;;;;;;5051923;28;20213;-67
2024/02/05 04:27:54;;;;;;;3.08;1.83;;;3.70;99.90;;;;;;5051708;28;20162;-68
2024/02/05 04:30:28;;;;;;;1.27;0.90;;;3.70;99.90;;;;;;5051893;28;20666;-67
2024/02/05 04:32:58;;;;;;;3.63;2.63;;;3.60;99.90;;;;;;5051879;28;20190;-68
2024/02/05 04:35:24;;;;;;;2.90;1.55;;;3.70;99.90;;;;;;5051760;28;20193;-68
2024/02/05 04:37:49;;;;;;;6.35;2.30;;;3.80;99.90;;;;;;5051506;28;20193;-68
2024/02/05 04:40:15;;;;;;;2.90;2.10;;;3.80;99.90;;;;;;5051648;28;20199;-67
2024/02/05 04:42:41;;;;;;;4.27;1.90;;;3.80;99.90;;;;;;5051826;28;20239;-68
2024/02/05 04:45:07;;;;;;;1.87;1.60;;;3.80;99.90;;;;;;5051690;28;20237;-67
2024/02/05 04:47:33;;;;;;;2.25;1.67;;;3.60;99.90;;;;;;5051434;28;20175;-68
2024/02/05 04:50:00;;;;;;;4.17;2.07;;;3.60;99.90;;;;;;5051563;28;20228;-68
2024/02/05 04:52:25;;;;;;;2.85;1.95;;;3.80;99.90;;;;;;5051871;28;20191;-67
2024/02/05 04:54:51;;;;;;;5.13;1.80;;;3.90;99.90;;;;;;5051498;28;20193;-67
2024/02/05 04:57:16;;;;;;;6.63;2.30;;;4.00;99.90;;;;;;5051324;28;20174;-68
2024/02/05 04:59:42;;;;;;;2.47;1.60;;;3.90;99.90;;;;;;5051457;28;20217;-68
2024/02/05 05:02:08;;;;;;;2.60;1.77;;;3.90;99.90;;;;;;5051439;28;20577;-68
2024/02/05 05:04:34;;;;;;;2.40;1.97;;;3.90;99.90;;;;;;5051307;28;20793;-68
2024/02/05 05:07:00;;;;;;;1.75;1.50;;;4.20;99.90;;;;;;5051141;28;20166;-68
2024/02/05 05:09:25;;;;;;;6.50;1.87;;;4.30;99.90;;;;;;5051407;28;20175;-68
2024/02/05 05:11:51;;;;;;;1.73;1.63;;;4.40;99.90;;;;;;5051325;28;20174;-68
2024/02/05 05:14:17;;;;;;;2.63;1.80;;;4.50;99.90;;;;;;5051100;28;20197;-68
2024/02/05 05:16:42;;;;;;;3.53;1.57;;;4.60;99.90;;;;;;5051087;28;20676;-68
2024/02/05 05:19:08;;;;;;;3.00;2.10;;;4.70;99.90;;;;;;5051754;28;20185;-67
2024/02/05 05:21:33;;;;;;;5.10;1.23;;;4.70;99.90;;;;;;5051497;28;20173;-68
2024/02/05 05:23:59;;;;;;;7.23;2.47;;;4.60;99.90;;;;;;5051025;28;20275;-68
2024/02/05 05:26:25;;;;;;;5.40;1.90;;;4.60;99.90;;;;;;5050960;28;20197;-68
2024/02/05 05:28:51;;;;;;;3.50;2.20;;;4.60;99.90;;;;;;5051114;28;20643;-68
2024/02/05 05:31:17;;;;;;;3.63;2.38;;;4.60;99.90;;;;;;5051203;28;20300;-67
2024/02/05 05:33:46;;;;;;;2.13;1.87;;;4.60;99.90;;;;;;5051036;28;20703;-67
2024/02/05 05:36:12;;;;;;;2.35;1.77;;;4.60;99.90;;;;;;5050808;28;20428;-67
2024/02/05 05:38:38;;;;;;;2.43;1.40;;;4.60;99.90;;;;;;5051136;28;20209;-68
2024/02/05 05:41:04;;;;;;;2.80;1.98;;;4.70;99.90;;;;;;5051104;28;20170;-67
2024/02/05 05:43:30;;;;;;;3.10;1.88;;;4.60;99.90;;;;;;5049607;28;20189;-68
2024/02/05 05:45:56;;;;;;;2.17;1.55;;;4.50;99.90;;;;;;5050799;28;20224;-68
2024/02/05 05:48:22;;;;;;;2.80;1.23;;;4.50;99.90;;;;;;5051038;28;20662;-67
2024/02/05 05:50:48;;;;;;;2.87;1.73;;;4.50;99.90;;;;;;5050961;28;20257;-67
2024/02/05 05:53:14;;;;;;;4.75;1.85;;;4.60;99.90;;;;;;5053852;28;20736;-68
2024/02/05 05:55:43;;;;;;;2.93;2.17;;;4.60;99.90;;;;;;5054835;28;20170;-67
2024/02/05 05:58:09;;;;;;;7.25;1.17;;;4.60;99.90;;;;;;5054563;28;20412;-68
2024/02/05 06:00:35;;;;;;;1.50;1.40;;;4.50;99.90;;;;;;5054987;28;20167;-68
2024/02/05 06:03:00;;;;;;;2.50;2.23;;;4.40;99.90;;;;;;5054670;28;20515;-68
2024/02/05 06:05:26;;;;;;;2.47;1.30;;;4.40;99.90;;;;;;5054652;28;20637;-67
2024/02/05 06:07:52;;;;;;;1.87;1.57;;;4.50;99.90;;;;;;5054423;28;20716;-67
2024/02/05 06:10:18;;;;;;;2.13;1.93;;;4.50;99.90;;;;;;5054604;28;20651;-68
2024/02/05 06:12:44;;;;;;;2.15;1.65;;;4.50;99.90;;;;;;5054447;28;20226;-68
2024/02/05 06:15:12;;;;;;;2.80;1.40;;;4.50;99.90;;;;;;5054440;28;20194;-68
2024/02/05 06:17:38;;;;;;;1.58;0.98;;;4.50;99.90;;;;;;5054079;28;20401;-68
2024/02/05 06:20:05;;;;;;;2.73;1.40;;;4.60;99.90;;;;;;5054526;28;20693;-68
2024/02/05 06:22:35;;;;;;;19.63;2.10;;;4.60;99.90;;;;;;5054482;28;20172;-68
2024/02/05 06:25:00;;;;;;;3.83;1.85;;;4.50;99.90;;;;;;5054071;28;20301;-68
2024/02/05 06:27:26;;;;;;;1.97;1.60;;;4.40;99.90;;;;;;5054096;28;20261;-68
2024/02/05 06:29:52;;;;;;;4.47;1.90;;;4.30;99.90;;;;;;5054355;28;20171;-68
2024/02/05 06:32:17;;;;;;;3.07;1.43;;;4.30;99.90;;;;;;5054091;28;20234;-68
2024/02/05 06:34:44;;;;;;;1.70;1.60;;;4.30;99.90;;;;;;5054198;28;20566;-68
2024/02/05 06:37:10;;;;;;;1.88;1.30;;;4.30;99.90;;;;;;5053830;28;20176;-68
2024/02/05 06:39:36;;;;;;;7.80;1.87;;;4.40;99.90;;;;;;5054092;28;20613;-68
2024/02/05 06:42:02;;;;;;;3.90;1.63;;;4.50;99.90;;;;;;5054090;28;21104;-68
2024/02/05 06:44:27;;;;;;;1.33;1.10;;;4.50;99.90;;;;;;5053936;28;20194;-68
2024/02/05 06:46:54;;;;;;;1.33;1.20;;;4.60;99.90;;;;;;5053659;28;20209;-68
2024/02/05 06:49:20;;;;;;;1.45;1.35;;;4.70;99.90;;;;;;5054257;28;20652;-68
2024/02/05 06:51:46;;;;;;;1.40;1.30;;;4.70;99.90;;;;;;5054801;28;20166;-68
2024/02/05 06:54:12;;;;;;;2.20;1.70;;;4.70;99.90;;;;;;5053722;28;20209;-67
2024/02/05 06:56:37;;;;;;;2.80;2.13;;;4.80;99.90;;;;;;5053433;28;20415;-67
2024/02/05 06:59:03;;;;;;;1.40;1.23;;;4.60;99.90;;;;;;5053619;28;20171;-68
2024/02/05 07:01:29;;;;;;;1.70;1.50;;;4.50;99.90;;;;;;5053576;28;20170;-68
2024/02/05 07:03:55;;;;;;;2.10;1.70;;;4.60;99.90;;;;;;5052183;28;20182;-68
2024/02/05 07:06:21;;;;;;;1.83;1.73;;;4.60;99.90;;;;;;5053285;28;20182;-68
2024/02/05 07:08:46;;;;;;;3.93;1.77;;;4.60;99.90;;;;;;5053395;28;20213;-68
2024/02/05 07:11:12;;;;;;;5.20;2.50;;;4.70;99.90;;;;;;5053483;28;20174;-68
2024/02/05 07:13:41;;;;;;;5.15;1.92;;;4.80;99.90;;;;;;5053331;28;20202;-68
2024/02/05 07:16:11;;;;;;;2.70;2.50;;;4.90;99.90;;;;;;5053024;28;20178;-68
2024/02/05 07:18:36;;;;;;;6.47;1.60;;;4.90;99.90;;;;;;5053352;28;20177;-68
2024/02/05 07:21:04;;;;;;;6.33;2.60;;;4.90;99.90;;;;;;5053232;28;20257;-68
2024/02/05 07:23:31;;;;;;;10.05;2.28;;;4.90;99.90;;;;;;5052926;28;20189;-68
2024/02/05 07:25:56;;;;;;;5.13;2.72;;;4.90;99.90;;;;;;5052891;28;20170;-68
2024/02/05 07:28:22;;;;;;;3.57;2.17;;;4.90;99.90;;;;;;5053142;28;20225;-68
2024/02/05 07:30:48;;;;;;;4.23;1.90;;;5.00;99.90;;;;;;5053033;28;20713;-68
2024/02/05 07:33:13;;;;;;;3.80;2.40;;;4.90;99.90;;;;;;5052837;28;20277;-67
2024/02/05 07:35:39;;;;;;;7.60;2.53;;;4.90;99.90;;;;;;5052953;28;20172;-67
2024/02/05 07:38:05;;;;;;;13.67;3.90;;;4.80;99.90;;;;;;5052615;28;20245;-68
2024/02/05 07:40:30;;;;;;;5.90;2.83;;;4.90;99.90;;;;;;5051628;28;20202;-68
2024/02/05 07:42:56;;;;;;;3.97;1.70;;;5.00;99.90;;;;;;5052827;28;20257;-67
2024/02/05 07:45:22;;;;;;;10.90;2.40;;;5.10;99.90;;;;;;5052660;28;20187;-67
2024/02/05 07:47:47;;;;;;;7.97;2.50;;;5.20;99.90;;;;;;5051232;28;20174;-68
2024/02/05 07:50:13;;;;;;;5.90;2.10;;;5.30;99.90;;;;;;5052667;28;20231;-68
2024/02/05 07:52:38;;;;;;;7.63;1.43;;;5.30;99.90;;;;;;5052472;28;20219;-68
2024/02/05 07:55:04;;;;;;;4.30;1.53;;;5.30;99.90;;;;;;5052553;28;20191;-68
2024/02/05 07:57:30;;;;;;;11.50;2.77;;;5.30;99.90;;;;;;5052286;28;20278;-68
2024/02/05 07:59:57;;;;;;;26.47;4.27;;;5.40;99.90;;;;;;5052572;28;20429;-68
2024/02/05 08:02:25;;;;;;;16.45;3.17;;;5.40;99.90;;;;;;5052494;28;20194;-68
2024/02/05 08:04:51;;;;;;;15.10;4.45;;;5.40;99.90;;;;;;5052392;28;20677;-68
2024/02/05 08:07:17;;;;;;;4.03;2.30;;;5.50;99.90;;;;;;5052039;28;20264;-68
2024/02/05 08:09:42;;;;;;;3.17;1.33;;;5.50;99.90;;;;;;5051003;28;20462;-68
2024/02/05 08:12:08;;;;;;;2.23;1.40;;;5.50;99.90;;;;;;5052275;28;20210;-67
2024/02/05 08:14:34;;;;;;;1.97;1.87;;;5.60;99.90;;;;;;5051744;28;20183;-68
2024/02/05 08:16:59;;;;;;;1.40;1.10;;;5.50;99.90;;;;;;5051904;28;20698;-68
2024/02/05 08:19:25;;;;;;;6.63;1.80;;;5.60;99.90;;;;;;5052211;28;20259;-68
2024/02/05 08:21:51;;;;;;;1.90;1.80;;;5.60;99.90;;;;;;5051968;28;20220;-68
2024/02/05 08:24:18;;;;;;;1.77;1.40;;;5.50;99.90;;;;;;5052077;28;20706;-68
2024/02/05 08:26:43;;;;;;;1.73;1.20;;;5.50;99.90;;;;;;5051827;28;20180;-68
2024/02/05 08:29:09;;;;;;;1.60;1.50;;;5.50;99.90;;;;;;5051988;28;20667;-68
2024/02/05 08:31:36;;;;;;;0.90;0.90;;;5.50;99.90;;;;;;5051958;28;20653;-68
2024/02/05 08:34:02;;;;;;;1.05;0.77;;;5.60;99.90;;;;;;5051782;28;20229;-68
2024/02/05 08:36:28;;;;;;;1.67;1.33;;;5.50;99.90;;;;;;5051501;28;20295;-68
2024/02/05 08:38:54;;;;;;;1.15;1.05;;;5.60;99.90;;;;;;5051810;28;20239;-68
2024/02/05 08:41:20;;;;;;;1.10;1.10;;;5.70;99.90;;;;;;5051743;28;20663;-68
2024/02/05 08:43:46;;;;;;;1.58;1.15;;;5.60;99.90;;;;;;5051724;28;20188;-68
2024/02/05 08:46:12;;;;;;;1.33;1.10;;;5.80;99.90;;;;;;5051430;28;20179;-68
2024/02/05 08:48:39;;;;;;;0.98;0.75;;;5.90;99.90;;;;;;5051700;28;20171;-68
2024/02/05 08:51:05;;;;;;;1.65;1.55;;;6.00;99.90;;;;;;5051640;28;20584;-68
2024/02/05 08:53:30;;;;;;;2.93;2.73;;;6.20;99.90;;;;;;5051500;28;20218;-68
2024/02/05 08:55:56;;;;;;;2.43;1.57;;;6.50;99.90;;;;;;5051322;28;20309;-68
2024/02/05 08:58:22;;;;;;;1.40;1.15;;;6.70;99.90;;;;;;5051477;28;20163;-68
2024/02/05 09:00:49;;;;;;;1.33;1.20;;;6.80;99.90;;;;;;5051512;28;20184;-68
2024/02/05 09:03:16;;;;;;;1.65;1.35;;;7.00;99.90;;;;;;5051360;28;20460;-68
2024/02/05 09:05:42;;;;;;;3.90;2.28;;;7.10;99.90;;;;;;5051400;28;20225;-68
2024/02/05 09:08:08;;;;;;;1.17;1.07;;;7.40;99.90;;;;;;5051121;28;20261;-68
2024/02/05 09:10:36;;;;;;;1.87;1.70;;;7.60;99.00;;;;;;5051342;28;20506;-68
2024/02/05 09:13:02;;;;;;;1.73;1.20;;;7.80;98.30;;;;;;5051317;28;20576;-68
2024/02/05 09:15:29;;;;;;;0.70;0.70;;;7.90;97.70;;;;;;5051410;28;20704;-68
2024/02/05 09:17:55;;;;;;;0.88;0.70;;;8.30;98.50;;;;;;5050858;28;20196;-68
2024/02/05 09:20:21;;;;;;;2.17;0.83;;;9.40;98.60;;;;;;5049984;28;20197;-68
2024/02/05 09:22:48;;;;;;;1.17;1.00;;;10.50;95.20;;;;;;5051436;28;20404;-68
2024/02/05 09:25:14;;;;;;;0.73;0.73;;;11.60;93.00;;;;;;5051112;28;20453;-68
2024/02/05 09:27:40;;;;;;;1.70;0.93;;;12.40;90.60;;;;;;5053214;28;20416;-68
2024/02/05 09:30:07;;;;;;;0.60;0.60;;;13.60;88.60;;;;;;5055396;28;20411;-68
2024/02/05 09:32:33;;;;;;;0.90;0.80;;;14.80;85.70;;;;;;5055165;28;20538;-68
2024/02/05 09:34:59;;;;;;;0.73;0.73;;;16.00;80.50;;;;;;5055502;28;20429;-68
2024/02/05 09:37:25;;;;;;;1.17;1.00;;;17.10;77.40;;;;;;5055098;28;20415;-69
2024/02/05 09:39:51;;;;;;;1.40;1.30;;;17.80;72.20;;;;;;5055328;28;20932;-68
2024/02/05 09:42:16;;;;;;;0.70;0.70;;;18.60;70.30;;;;;;5053723;28;20233;-68
2024/02/05 09:44:45;;;;;;;0.60;0.53;;;19.10;62.10;;;;;;5055087;28;20201;-68
2024/02/05 09:47:17;;;;;;;0.80;0.80;;;18.80;60.40;;;;;;5054754;28;20170;-69
2024/02/05 09:49:48;;;;;;;0.60;0.60;;;18.20;61.20;;;;;;5055014;28;20482;-68
2024/02/05 09:52:15;;;;;;;0.70;0.70;;;17.80;60.80;;;;;;5054985;28;20455;-69
2024/02/05 09:54:43;;;;;;;0.67;0.67;;;17.30;61.80;;;;;;5054826;28;20933;-68
2024/02/05 09:57:11;;;;;;;0.70;0.70;;;16.60;62.60;;;;;;5054820;28;20671;-69
2024/02/05 09:59:40;;;;;;;0.87;0.80;;;16.30;65.10;;;;;;5054786;28;20411;-68
2024/02/05 10:02:07;;;;;;;1.17;0.60;;;16.60;63.90;;;;;;5054789;28;20430;-68
2024/02/05 10:04:41;;;;;;;2.20;0.93;;;16.60;64.00;;;;;;5054684;28;20502;-68
2024/02/05 10:07:11;;;;;;;2.43;0.80;;;16.80;64.00;;;;;;5054443;28;20495;-68
2024/02/05 10:09:38;;;;;;;1.43;0.60;;;16.60;62.60;;;;;;5054659;28;20401;-68
2024/02/05 10:12:06;;;;;;;2.13;1.80;;;16.50;64.30;;;;;;5054575;28;20829;-69
2024/02/05 10:14:32;;;;;;;3.30;2.60;;;16.60;63.90;;;;;;5054774;28;21133;-68
2024/02/05 10:16:58;;;;;;;1.40;1.30;;;16.50;63.40;;;;;;5052918;28;20383;-68
2024/02/05 10:19:23;;;;;;;2.20;1.70;;;16.20;64.80;;;;;;5054423;28;20397;-68
2024/02/05 10:21:50;;;;;;;1.03;0.93;;;16.00;65.10;;;;;;5054374;28;20166;-68
2024/02/05 10:24:16;;;;;;;0.93;0.93;;;15.70;65.50;;;;;;5054170;28;20575;-68
2024/02/05 10:26:41;;;;;;;1.30;1.20;;;15.70;66.20;;;;;;5053895;28;20479;-68
2024/02/05 10:29:13;;;;;;;2.90;1.90;;;15.60;66.20;;;;;;5054299;28;20566;-68
2024/02/05 10:31:47;;;;;;;1.10;1.10;;;15.50;66.10;;;;;;5054227;28;20197;-68
2024/02/05 10:34:17;;;;;;;1.80;1.30;;;15.10;67.40;;;;;;5054127;28;20461;-68
2024/02/05 10:36:43;;;;;;;1.07;0.97;;;14.80;68.60;;;;;;5053970;28;20732;-68
2024/02/05 10:39:09;;;;;;;1.30;1.20;;;14.80;70.00;;;;;;5053661;28;20506;-68
2024/02/05 10:41:38;;;;;;;0.90;0.87;;;15.10;70.10;;;;;;5054036;28;20172;-68
2024/02/05 10:44:04;;;;;;;1.07;0.87;;;15.50;68.50;;;;;;5052647;28;20441;-68
2024/02/05 10:46:33;;;;;;;3.13;2.67;;;15.40;68.50;;;;;;5053724;28;20810;-68
2024/02/05 10:49:02;;;;;;;2.20;2.00;;;15.60;69.00;;;;;;5053935;28;20430;-68
2024/02/05 10:51:28;;;;;;;1.10;1.10;;;15.70;67.60;;;;;;5053838;28;20786;-68
2024/02/05 10:53:54;;;;;;;0.80;0.73;;;15.50;68.90;;;;;;5053420;28;21018;-68
2024/02/05 10:56:20;;;;;;;3.27;2.60;;;15.70;68.30;;;;;;5053656;28;20414;-68
2024/02/05 10:58:48;;;;;;;1.10;1.10;;;15.70;68.60;;;;;;5053732;28;20809;-68
2024/02/05 11:01:20;;;;;;;2.90;2.70;;;15.90;68.40;;;;;;5053701;28;20397;-68
2024/02/05 11:03:49;;;;;;;0.93;0.93;;;15.80;68.70;;;;;;5053618;28;20530;-68
2024/02/05 11:06:17;;;;;;;2.77;2.57;;;15.60;68.80;;;;;;5051922;28;20415;-68
2024/02/05 11:08:43;;;;;;;7.37;6.63;;;15.30;69.20;;;;;;5053718;28;20768;-68
2024/02/05 11:11:12;;;;;;;4.10;3.70;;;15.20;70.70;;;;;;5053422;28;20405;-68
2024/02/05 11:13:41;;;;;;;1.50;1.40;;;15.20;70.80;;;;;;5053441;28;20460;-68
2024/02/05 11:16:07;;;;;;;3.23;1.43;;;15.00;72.40;;;;;;5051903;28;20416;-68
2024/02/05 11:18:45;;;;;;;0.50;0.43;;;14.80;72.20;;;;;;5053424;28;20416;-68
2024/02/05 11:21:16;;;;;;;2.10;1.87;;;14.60;73.40;;;;;;5053359;28;20401;-68
2024/02/05 11:23:44;;;;;;;0.60;0.60;;;14.30;74.10;;;;;;5053290;28;20828;-68
2024/02/05 11:26:10;;;;;;;0.87;0.67;;;14.10;76.70;;;;;;5052943;28;20404;-68
2024/02/05 11:28:36;;;;;;;0.53;0.53;;;13.60;79.90;;;;;;5053667;28;20962;-68
2024/02/05 11:31:07;;;;;;;0.80;0.80;;;13.00;80.70;;;;;;5053190;28;20411;-68
2024/02/05 11:33:37;;;;;;;0.50;0.50;;;12.60;84.20;;;;;;5052986;28;20506;-68
2024/02/05 11:36:07;;;;;;;0.83;0.60;;;12.40;86.10;;;;;;5052831;28;20926;-68
2024/02/05 11:38:33;;;;;;;1.23;0.80;;;12.30;89.10;;;;;;5053009;28;20402;-68
2024/02/05 11:41:01;;;;;;;1.43;0.63;;;12.10;88.70;;;;;;5052952;28;20400;-68
2024/02/05 11:43:28;;;;;;;3.50;1.20;;;12.20;88.80;;;;;;5052957;28;20174;-67
2024/02/05 11:45:54;;;;;;;1.40;0.70;;;12.40;90.20;;;;;;5051397;28;20417;-68
2024/02/05 11:48:20;;;;;;;0.80;0.60;;;12.50;90.30;;;;;;5053092;28;20780;-68
2024/02/05 11:50:47;;;;;;;0.73;0.73;;;12.40;89.30;;;;;;5051979;28;20247;-68
2024/02/05 11:53:17;;;;;;;1.07;0.80;;;12.30;87.50;;;;;;5052763;28;20547;-68
2024/02/05 11:55:43;;;;;;;1.73;1.53;;;12.50;90.40;;;;;;5052624;28;20438;-68
2024/02/05 11:58:10;;;;;;;3.50;1.50;;;12.50;88.10;;;;;;5052460;28;20526;-68
2024/02/05 12:00:35;;;;;;;4.30;1.20;;;12.50;88.00;;;;;;5052520;28;20170;-67
2024/02/05 12:03:01;;;;;;;2.47;1.40;;;12.60;88.20;;;;;;5052526;28;20417;-68
2024/02/05 12:05:29;;;;;;;2.17;1.40;;;12.40;87.60;;;;;;5052616;28;20272;-68
2024/02/05 12:07:55;;;;;;;2.50;1.80;;;12.30;88.10;;;;;;5052184;28;20418;-68
2024/02/05 12:10:22;;;;;;;1.93;1.50;;;12.00;88.90;;;;;;5052331;28;20408;-68
2024/02/05 12:12:48;;;;;;;1.33;1.17;;;11.90;90.30;;;;;;5052334;28;20451;-67
2024/02/05 12:15:22;;;;;;;3.40;1.33;;;12.00;90.70;;;;;;5052154;28;20427;-67
2024/02/05 12:17:48;;;;;;;1.83;1.03;;;12.20;90.80;;;;;;5052046;28;20652;-68
2024/02/05 12:20:21;;;;;;;3.37;1.17;;;12.20;89.90;;;;;;5052290;28;20404;-68
2024/02/05 12:22:48;;;;;;;1.90;0.83;;;12.10;85.20;;;;;;5052238;28;20774;-68
2024/02/05 12:25:17;;;;;;;5.57;1.30;;;12.20;88.20;;;;;;5051930;28;20441;-68
2024/02/05 12:27:45;;;;;;;2.10;1.00;;;12.20;88.30;;;;;;5051741;28;20943;-68
2024/02/05 12:30:11;;;;;;;4.80;1.20;;;12.20;84.10;;;;;;5052022;28;20405;-68
2024/02/05 12:32:37;;;;;;;0.93;0.70;;;12.30;84.10;;;;;;5051941;28;20453;-67
2024/02/05 12:35:03;;;;;;;2.70;1.03;;;12.40;83.00;;;;;;5050584;28;20432;-68
2024/02/05 12:37:29;;;;;;;5.57;2.00;;;12.50;84.10;;;;;;5051682;28;20174;-68
2024/02/05 12:39:55;;;;;;;1.57;0.77;;;12.60;82.80;;;;;;5051688;28;20455;-68
2024/02/05 12:42:24;;;;;;;2.10;1.13;;;12.50;82.80;;;;;;5051966;28;20833;-66
2024/02/05 12:44:51;;;;;;;4.03;1.10;;;12.30;81.60;;;;;;5051802;28;20837;-67
2024/02/05 12:47:18;;;;;;;1.83;1.03;;;12.20;81.80;;;;;;5051456;28;20413;-67
2024/02/05 12:49:43;;;;;;;3.27;0.80;;;12.10;84.10;;;;;;5051815;28;20409;-67